createdAt,value
2023-04-21T00:00:30.560Z,16.45
2023-04-21T00:03:00.171Z,14.60
2023-04-21T00:05:28.473Z,15.48
2023-04-21T00:07:56.676Z,18.75
2023-04-21T00:10:24.705Z,15.65
2023-04-21T00:12:52.721Z,16.80
2023-04-21T00:15:20.849Z,15.98
2023-04-21T00:17:49.123Z,16.27
2023-04-21T00:20:18.804Z,16.38
2023-04-21T00:22:47.216Z,20.52
2023-04-21T00:25:16.136Z,14.15
2023-04-21T00:27:44.286Z,18.48
2023-04-21T00:30:13.253Z,17.08
2023-04-21T00:32:41.679Z,15.45
2023-04-21T00:35:10.770Z,16.55
2023-04-21T00:37:40.969Z,17.20
2023-04-21T00:40:10.712Z,16.13
2023-04-21T00:42:39.089Z,15.77
2023-04-21T00:45:08.267Z,19.23
2023-04-21T00:47:36.594Z,16.83
2023-04-21T00:50:05.567Z,18.58
2023-04-21T00:52:35.163Z,18.02
2023-04-21T00:55:05.698Z,16.17
2023-04-21T00:57:33.971Z,15.80
2023-04-21T01:00:02.166Z,14.90
2023-04-21T01:02:30.419Z,17.70
2023-04-21T01:04:58.676Z,21.45
2023-04-21T01:07:27.064Z,14.90
2023-04-21T01:09:55.454Z,17.08
2023-04-21T01:12:25.106Z,16.73
2023-04-21T01:14:53.419Z,17.95
2023-04-21T01:17:22.903Z,18.73
2023-04-21T01:19:53.276Z,18.98
2023-04-21T01:22:22.812Z,17.23
2023-04-21T01:24:51.960Z,19.15
2023-04-21T01:27:22.238Z,18.52
2023-04-21T01:29:52.233Z,17.08
2023-04-21T01:32:22.333Z,20.17
2023-04-21T01:34:51.600Z,15.40
2023-04-21T01:37:23.411Z,15.20
2023-04-21T01:39:55.355Z,17.30
2023-04-21T01:42:26.428Z,17.00
2023-04-21T01:44:54.915Z,20.17
2023-04-21T01:47:23.128Z,16.33
2023-04-21T01:49:51.221Z,18.52
2023-04-21T01:52:19.507Z,18.25
2023-04-21T01:54:49.208Z,14.63
2023-04-21T01:57:17.691Z,21.00
2023-04-21T01:59:46.044Z,15.88
2023-04-21T02:02:14.534Z,19.83
2023-04-21T02:04:42.863Z,14.35
2023-04-21T02:07:10.994Z,15.15
2023-04-21T02:09:39.286Z,16.98
2023-04-21T02:12:09.205Z,19.42
2023-04-21T02:14:38.624Z,18.92
2023-04-21T02:17:07.163Z,14.93
2023-04-21T02:19:35.501Z,18.58
2023-04-21T02:22:04.183Z,18.10
2023-04-21T02:24:32.319Z,18.05
2023-04-21T02:27:00.710Z,17.80
2023-04-21T02:29:32.859Z,15.25
2023-04-21T02:32:10.721Z,15.60
2023-04-21T02:34:49.482Z,17.75
2023-04-21T02:37:17.785Z,20.67
2023-04-21T02:39:46.204Z,24.02
2023-04-21T02:42:14.424Z,18.90
2023-04-21T02:44:44.280Z,19.40
2023-04-21T02:47:12.849Z,18.02
2023-04-21T02:49:44.224Z,21.80
2023-04-21T02:52:12.568Z,19.90
2023-04-21T02:54:40.852Z,19.35
2023-04-21T02:57:10.025Z,21.40
2023-04-21T02:59:38.186Z,17.95
2023-04-21T03:02:08.395Z,19.52
2023-04-21T03:04:36.733Z,20.75
2023-04-21T03:07:05.217Z,18.17
2023-04-21T03:09:33.816Z,20.50
2023-04-21T03:12:03.353Z,17.88
2023-04-21T03:14:31.742Z,19.42
2023-04-21T03:17:00.196Z,25.70
2023-04-21T03:19:29.917Z,16.98
2023-04-21T03:21:58.531Z,18.35
2023-04-21T03:24:30.206Z,17.83
2023-04-21T03:26:58.769Z,19.42
2023-04-21T03:29:28.556Z,17.67
2023-04-21T03:31:56.909Z,19.52
2023-04-21T03:34:25.406Z,14.75
2023-04-21T03:36:56.061Z,20.58
2023-04-21T03:39:24.516Z,20.80
2023-04-21T03:41:52.829Z,19.02
2023-04-21T03:44:21.351Z,20.00
2023-04-21T03:46:49.897Z,16.58
2023-04-21T03:49:18.540Z,20.08
2023-04-21T03:51:46.996Z,17.15
2023-04-21T03:54:16.621Z,19.75
2023-04-21T03:56:44.887Z,17.00
2023-04-21T03:59:13.096Z,21.42
2023-04-21T04:01:42.507Z,18.83
2023-04-21T04:04:11.124Z,20.17
2023-04-21T04:06:39.571Z,18.55
2023-04-21T04:09:09.374Z,16.98
2023-04-21T04:11:39.529Z,23.95
2023-04-21T04:14:07.979Z,16.67
2023-04-21T04:16:38.130Z,15.38
2023-04-21T04:19:06.327Z,18.10
2023-04-21T04:21:34.861Z,16.75
2023-04-21T04:24:05.433Z,19.38
2023-04-21T04:26:35.752Z,21.67
2023-04-21T04:29:06.553Z,16.27
2023-04-21T04:31:35.413Z,17.55
2023-04-21T04:34:03.759Z,16.95
2023-04-21T04:36:32.520Z,18.67
2023-04-21T04:39:00.884Z,21.40
2023-04-21T04:41:33.509Z,14.90
2023-04-21T04:44:01.789Z,22.02
2023-04-21T04:46:31.588Z,19.83
2023-04-21T04:49:00.607Z,18.13
2023-04-21T04:51:29.399Z,23.33
2023-04-21T04:53:57.815Z,17.55
2023-04-21T04:56:26.445Z,17.70
2023-04-21T04:58:54.652Z,34.78
2023-04-21T05:01:26.109Z,34.80
2023-04-21T05:03:56.147Z,26.38
2023-04-21T05:06:24.717Z,26.77
2023-04-21T05:08:53.068Z,20.17
2023-04-21T05:11:21.171Z,27.58
2023-04-21T05:13:49.848Z,38.00
2023-04-21T05:16:18.094Z,34.25
2023-04-21T05:18:46.278Z,33.63
2023-04-21T05:21:15.905Z,31.92
2023-04-21T05:23:44.532Z,52.30
2023-04-21T05:26:13.147Z,36.33
2023-04-21T05:28:41.257Z,35.75
2023-04-21T05:31:09.478Z,39.90
2023-04-21T05:33:38.132Z,28.70
2023-04-21T05:36:09.553Z,30.58
2023-04-21T05:38:39.938Z,27.95
2023-04-21T05:41:08.824Z,37.83
2023-04-21T05:43:37.180Z,36.20
2023-04-21T05:46:11.202Z,34.20
2023-04-21T05:48:40.431Z,31.15
2023-04-21T05:51:12.902Z,30.10
2023-04-21T05:53:43.803Z,22.83
2023-04-21T05:56:12.177Z,22.90
2023-04-21T05:58:40.695Z,29.67
2023-04-21T06:01:09.845Z,42.78
2023-04-21T06:03:38.508Z,25.65
2023-04-21T06:06:08.199Z,23.20
2023-04-21T06:08:36.579Z,27.50
2023-04-21T06:11:07.059Z,30.67
2023-04-21T06:13:37.000Z,30.48
2023-04-21T06:16:07.404Z,33.38
2023-04-21T06:18:35.978Z,23.55
2023-04-21T06:21:04.361Z,26.05
2023-04-21T06:23:32.533Z,23.55
2023-04-21T06:26:05.162Z,23.40
2023-04-21T06:28:36.131Z,18.88
2023-04-21T06:31:08.754Z,18.27
2023-04-21T06:33:37.737Z,20.67
2023-04-21T06:36:07.325Z,18.30
2023-04-21T06:38:36.097Z,18.10
2023-04-21T06:41:05.959Z,18.05
2023-04-21T06:43:35.996Z,19.40
2023-04-21T06:46:04.382Z,20.58
2023-04-21T06:48:32.745Z,16.77
2023-04-21T06:51:02.884Z,16.33
2023-04-21T06:53:31.355Z,18.10
2023-04-21T06:56:01.136Z,17.88
2023-04-21T06:58:29.447Z,18.25
2023-04-21T07:00:59.394Z,19.05
2023-04-21T07:03:27.755Z,17.23
2023-04-21T07:05:56.412Z,17.55
2023-04-21T07:08:26.827Z,15.65
2023-04-21T07:10:55.607Z,16.02
2023-04-21T07:13:24.507Z,18.95
2023-04-21T07:15:53.314Z,17.83
2023-04-21T07:18:22.996Z,16.30
2023-04-21T07:20:51.513Z,20.13
2023-04-21T07:23:20.402Z,14.43
2023-04-21T07:25:52.456Z,13.82
2023-04-21T07:28:20.943Z,19.23
2023-04-21T07:30:49.725Z,14.65
2023-04-21T07:33:18.458Z,14.77
2023-04-21T07:35:48.365Z,12.38
2023-04-21T07:38:16.330Z,14.60
2023-04-21T07:40:44.642Z,16.48
2023-04-21T07:43:13.639Z,14.90
2023-04-21T07:45:42.074Z,12.32
2023-04-21T07:48:10.507Z,14.77
2023-04-21T07:50:38.922Z,12.45
2023-04-21T07:53:08.551Z,13.73
2023-04-21T07:55:37.383Z,11.93
2023-04-21T07:58:06.819Z,10.35
2023-04-21T08:00:35.325Z,9.10
2023-04-21T08:03:03.694Z,12.05
2023-04-21T08:05:35.763Z,10.13
2023-04-21T08:10:37.202Z,8.73
2023-04-21T08:13:06.684Z,8.43
2023-04-21T08:15:36.002Z,10.65
2023-04-21T08:18:04.379Z,10.73
2023-04-21T08:20:32.864Z,9.57
2023-04-21T08:23:01.592Z,8.55
2023-04-21T08:25:30.125Z,8.18
2023-04-21T08:27:59.937Z,9.75
2023-04-21T08:30:29.218Z,11.27
2023-04-21T08:32:57.617Z,6.55
2023-04-21T08:35:26.698Z,9.18
2023-04-21T08:37:55.706Z,7.68
2023-04-21T08:40:31.155Z,5.30
2023-04-21T08:43:01.093Z,8.40
2023-04-21T08:45:30.093Z,7.03
2023-04-21T08:48:00.577Z,6.80
2023-04-21T08:50:30.446Z,8.20
2023-04-21T08:52:59.508Z,8.70
2023-04-21T08:55:30.610Z,9.52
2023-04-21T08:58:00.734Z,8.82
2023-04-21T09:00:29.062Z,6.85
2023-04-21T09:03:01.163Z,8.65
2023-04-21T09:05:32.500Z,7.60
2023-04-21T09:08:10.821Z,8.02
2023-04-21T09:10:47.124Z,8.32
2023-04-21T09:13:18.518Z,8.95
2023-04-21T09:15:49.125Z,8.48
2023-04-21T09:18:19.083Z,9.50
2023-04-21T09:20:50.192Z,8.15
2023-04-21T09:23:18.835Z,7.57
2023-04-21T09:25:47.706Z,6.70
2023-04-21T09:28:17.455Z,8.20
2023-04-21T09:30:46.601Z,7.50
2023-04-21T09:33:28.066Z,10.88
2023-04-21T09:36:03.419Z,12.38
2023-04-21T09:38:32.860Z,9.38
2023-04-21T09:41:01.126Z,8.88
2023-04-21T09:43:30.773Z,7.85
2023-04-21T09:46:01.726Z,5.18
2023-04-21T09:48:34.918Z,11.23
2023-04-21T09:51:25.509Z,7.23
2023-04-21T09:53:58.151Z,5.45
2023-04-21T09:56:27.756Z,5.45
2023-04-21T09:59:03.008Z,6.28
2023-04-21T10:01:32.360Z,6.25
2023-04-21T10:04:01.722Z,6.15
2023-04-21T10:06:30.318Z,5.57
2023-04-21T10:08:59.949Z,11.05
2023-04-21T10:11:28.596Z,4.60
2023-04-21T10:13:58.696Z,11.50
2023-04-21T10:16:27.056Z,5.63
2023-04-21T10:18:56.014Z,5.00
2023-04-21T10:21:24.670Z,4.15
2023-04-21T10:23:54.582Z,5.90
2023-04-21T10:26:25.400Z,6.50
2023-04-21T10:28:56.360Z,3.65
2023-04-21T10:31:31.598Z,4.03
2023-04-21T10:34:23.705Z,5.10
2023-04-21T10:37:15.831Z,6.07
2023-04-21T10:39:48.391Z,4.15
2023-04-21T10:42:31.378Z,3.45
2023-04-21T10:45:11.357Z,4.40
2023-04-21T10:47:51.731Z,7.63
2023-04-21T10:50:26.607Z,4.65
2023-04-21T10:52:58.190Z,3.72
2023-04-21T10:55:31.576Z,13.60
2023-04-21T10:58:04.474Z,5.53
2023-04-21T11:00:33.784Z,5.47
2023-04-21T11:03:06.286Z,4.35
2023-04-21T11:05:40.570Z,5.32
2023-04-21T11:08:14.667Z,8.02
2023-04-21T11:10:44.746Z,4.88
2023-04-21T11:13:13.227Z,5.15
2023-04-21T11:15:43.026Z,3.90
2023-04-21T11:18:13.015Z,5.97
2023-04-21T11:20:46.347Z,5.57
2023-04-21T11:23:19.344Z,8.23
2023-04-21T11:25:50.717Z,6.13
2023-04-21T11:28:23.235Z,4.25
2023-04-21T11:30:51.987Z,4.82
2023-04-21T11:33:21.892Z,6.82
2023-04-21T11:35:51.801Z,5.03
2023-04-21T11:38:20.181Z,3.28
2023-04-21T11:40:49.590Z,6.22
2023-04-21T11:43:18.342Z,3.78
2023-04-21T11:45:50.863Z,3.20
2023-04-21T11:48:21.077Z,5.03
2023-04-21T11:50:52.102Z,7.20
2023-04-21T11:53:21.188Z,4.10
2023-04-21T11:55:49.779Z,5.10
2023-04-21T11:58:18.293Z,4.05
2023-04-21T12:00:47.425Z,5.95
2023-04-21T12:03:16.596Z,3.50
2023-04-21T12:05:46.239Z,3.28
2023-04-21T12:08:19.583Z,2.45
2023-04-21T12:10:50.626Z,2.85
2023-04-21T12:13:24.145Z,2.60
2023-04-21T12:15:52.931Z,3.10
2023-04-21T12:18:21.544Z,2.40
2023-04-21T12:20:54.487Z,3.03
2023-04-21T12:23:24.425Z,3.25
2023-04-21T12:25:53.132Z,2.72
2023-04-21T12:28:21.801Z,3.15
2023-04-21T12:30:50.682Z,3.17
2023-04-21T12:33:19.129Z,3.78
2023-04-21T12:35:48.179Z,8.27
2023-04-21T12:38:16.692Z,2.60
2023-04-21T12:40:46.558Z,2.13
2023-04-21T12:43:15.072Z,3.95
2023-04-21T12:45:43.424Z,3.30
2023-04-21T12:48:12.585Z,2.70
2023-04-21T12:50:41.310Z,2.78
2023-04-21T12:53:09.714Z,4.60
2023-04-21T12:55:39.137Z,2.83
2023-04-21T12:58:09.648Z,3.13
2023-04-21T13:00:38.448Z,2.45
2023-04-21T13:03:07.816Z,2.25
2023-04-21T13:05:36.479Z,1.77
2023-04-21T13:08:05.366Z,1.75
2023-04-21T13:10:33.910Z,1.77
2023-04-21T13:13:02.542Z,2.90
2023-04-21T13:15:32.737Z,2.72
2023-04-21T13:18:01.242Z,1.73
2023-04-21T13:20:29.632Z,6.97
2023-04-21T13:22:57.810Z,3.40
2023-04-21T13:25:26.166Z,3.78
2023-04-21T13:27:54.987Z,5.78
2023-04-21T13:30:23.521Z,1.95
2023-04-21T13:32:53.447Z,3.22
2023-04-21T13:35:22.292Z,2.10
2023-04-21T13:37:50.869Z,3.30
2023-04-21T13:40:19.444Z,3.00
2023-04-21T13:42:48.568Z,2.50
2023-04-21T13:45:17.147Z,2.60
2023-04-21T13:47:45.711Z,2.65
2023-04-21T13:50:16.610Z,3.13
2023-04-21T13:52:44.936Z,2.60
2023-04-21T13:55:13.512Z,4.45
2023-04-21T13:57:41.990Z,1.85
2023-04-21T14:00:12.480Z,1.60
2023-04-21T14:02:42.019Z,2.15
2023-04-21T14:05:11.095Z,6.88
2023-04-21T14:07:41.526Z,1.88
2023-04-21T14:10:11.502Z,1.67
2023-04-21T14:12:40.013Z,2.15
2023-04-21T14:15:09.540Z,2.95
2023-04-21T14:17:38.116Z,2.15
2023-04-21T14:20:09.529Z,2.25
2023-04-21T14:22:38.110Z,1.70
2023-04-21T14:25:08.896Z,3.33
2023-04-21T14:27:37.721Z,1.25
2023-04-21T14:30:07.324Z,3.53
2023-04-21T14:32:35.755Z,3.03
2023-04-21T14:35:05.762Z,2.30
2023-04-21T14:37:34.365Z,3.05
2023-04-21T14:40:04.542Z,1.23
2023-04-21T14:42:34.516Z,1.13
2023-04-21T14:45:02.952Z,1.10
2023-04-21T14:47:31.705Z,1.27
2023-04-21T14:50:00.525Z,1.73
2023-04-21T14:52:29.334Z,1.17
2023-04-21T14:54:58.208Z,1.65
2023-04-21T14:57:27.405Z,1.08
2023-04-21T14:59:57.432Z,3.15
2023-04-21T15:02:26.772Z,1.98
2023-04-21T15:04:55.156Z,2.60
2023-04-21T15:07:24.644Z,1.30
2023-04-21T15:09:53.782Z,1.85
2023-04-21T15:12:22.546Z,1.60
2023-04-21T15:14:51.811Z,1.50
2023-04-21T15:17:21.607Z,6.85
2023-04-21T15:19:50.119Z,1.80
2023-04-21T15:22:21.154Z,2.95
2023-04-21T15:24:50.307Z,11.93
2023-04-21T15:27:19.957Z,6.38
2023-04-21T15:29:48.455Z,2.55
2023-04-21T15:32:18.735Z,1.30
2023-04-21T15:34:49.304Z,1.98
2023-04-21T15:37:19.309Z,2.00
2023-04-21T15:39:47.733Z,4.60
2023-04-21T15:42:16.192Z,1.10
2023-04-21T15:44:44.803Z,1.85
2023-04-21T15:47:13.250Z,2.13
2023-04-21T15:49:41.465Z,2.58
2023-04-21T15:52:11.422Z,0.98
2023-04-21T15:54:40.163Z,1.98
2023-04-21T15:57:10.917Z,1.70
2023-04-21T15:59:40.820Z,0.80
2023-04-21T16:02:09.730Z,3.33
2023-04-21T16:04:38.668Z,1.33
2023-04-21T16:07:07.804Z,2.83
2023-04-21T16:09:38.013Z,5.10
2023-04-21T16:12:10.523Z,6.55
2023-04-21T16:14:50.772Z,2.40
2023-04-21T16:17:26.671Z,3.53
2023-04-21T16:19:56.911Z,2.28
2023-04-21T16:22:26.247Z,1.92
2023-04-21T16:24:56.744Z,2.35
2023-04-21T16:27:25.922Z,1.55
2023-04-21T16:29:54.437Z,5.78
2023-04-21T16:32:22.840Z,3.25
2023-04-21T16:34:51.054Z,0.88
2023-04-21T16:37:20.078Z,1.02
2023-04-21T16:39:48.863Z,1.27
2023-04-21T16:42:18.720Z,0.75
2023-04-21T16:44:51.265Z,3.40
2023-04-21T16:47:20.352Z,4.38
2023-04-21T16:49:49.765Z,1.85
2023-04-21T16:52:18.462Z,1.40
2023-04-21T16:54:46.672Z,1.50
2023-04-21T16:57:15.044Z,6.38
2023-04-21T16:59:44.700Z,6.28
2023-04-21T17:02:13.432Z,1.92
2023-04-21T17:04:41.808Z,3.28
2023-04-21T17:07:11.302Z,4.72
2023-04-21T17:09:39.909Z,3.45
2023-04-21T17:12:08.194Z,2.85
2023-04-21T17:14:37.481Z,1.45
2023-04-21T17:17:07.475Z,1.35
2023-04-21T17:19:36.668Z,1.45
2023-04-21T17:22:05.336Z,1.00
2023-04-21T17:24:44.983Z,1.42
2023-04-21T17:27:21.160Z,1.50
2023-04-21T17:29:50.190Z,1.52
2023-04-21T17:32:21.996Z,2.15
2023-04-21T17:34:50.520Z,6.75
2023-04-21T17:37:18.877Z,4.43
2023-04-21T17:39:47.198Z,4.22
2023-04-21T17:42:15.455Z,3.78
2023-04-21T17:44:43.824Z,11.02
2023-04-21T17:47:13.126Z,9.52
2023-04-21T17:49:43.057Z,7.53
2023-04-21T17:52:12.196Z,9.85
2023-04-21T17:54:41.583Z,8.52
2023-04-21T17:57:09.905Z,11.43
2023-04-21T17:59:38.328Z,5.38
2023-04-21T18:02:08.272Z,5.20
2023-04-21T18:04:37.030Z,6.07
2023-04-21T18:07:08.060Z,13.40
2023-04-21T18:09:37.695Z,15.10
2023-04-21T18:12:06.220Z,9.82
2023-04-21T18:14:36.267Z,7.20
2023-04-21T18:17:04.890Z,5.10
2023-04-21T18:19:33.271Z,1.80
2023-04-21T18:22:01.836Z,3.45
2023-04-21T18:24:32.435Z,2.22
2023-04-21T18:27:00.948Z,1.52
2023-04-21T18:29:29.275Z,1.88
2023-04-21T18:31:57.601Z,1.73
2023-04-21T18:34:26.536Z,1.13
2023-04-21T18:36:54.811Z,1.60
2023-04-21T18:39:23.171Z,2.58
2023-04-21T18:41:53.649Z,1.30
2023-04-21T18:44:22.373Z,1.58
2023-04-21T18:46:50.828Z,2.15
2023-04-21T18:49:19.344Z,2.65
2023-04-21T18:51:47.947Z,1.73
2023-04-21T18:54:16.938Z,1.20
2023-04-21T18:56:46.029Z,2.28
2023-04-21T18:59:16.871Z,2.05
2023-04-21T19:01:45.717Z,1.65
2023-04-21T19:04:14.889Z,1.85
2023-04-21T19:06:43.558Z,1.88
2023-04-21T19:09:12.133Z,2.90
2023-04-21T19:11:40.946Z,3.55
2023-04-21T19:14:10.348Z,3.08
2023-04-21T19:16:41.770Z,3.90
2023-04-21T19:19:11.157Z,5.20
2023-04-21T19:21:39.833Z,4.10
2023-04-21T19:24:09.102Z,7.03
2023-04-21T19:26:38.137Z,5.47
2023-04-21T19:29:08.973Z,3.17
2023-04-21T19:31:37.671Z,2.75
2023-04-21T19:34:08.731Z,4.53
2023-04-21T19:36:37.657Z,3.22
2023-04-21T19:39:07.830Z,1.70
2023-04-21T19:41:36.606Z,3.47
2023-04-21T19:44:06.121Z,3.97
2023-04-21T19:46:34.995Z,5.43
2023-04-21T19:49:04.365Z,4.63
2023-04-21T19:51:34.578Z,5.82
2023-04-21T19:54:10.604Z,3.80
2023-04-21T19:56:39.927Z,3.22
2023-04-21T19:59:09.142Z,3.75
2023-04-21T20:01:38.194Z,4.32
2023-04-21T20:04:09.295Z,3.38
2023-04-21T20:06:42.162Z,6.15
2023-04-21T20:09:11.459Z,4.25
2023-04-21T20:11:40.569Z,5.13
2023-04-21T20:14:09.848Z,8.80
2023-04-21T20:16:38.986Z,2.47
2023-04-21T20:19:09.085Z,4.30
2023-04-21T20:21:38.109Z,3.55
2023-04-21T20:24:08.891Z,5.03
2023-04-21T20:26:38.003Z,5.38
2023-04-21T20:29:09.432Z,4.70
2023-04-21T20:31:38.318Z,6.20
2023-04-21T20:34:07.735Z,8.65
2023-04-21T20:36:37.916Z,5.72
2023-04-21T20:39:09.460Z,4.05
2023-04-21T20:41:39.470Z,4.97
2023-04-21T20:44:09.587Z,4.97
2023-04-21T20:46:38.537Z,5.00
2023-04-21T20:49:08.415Z,5.97
2023-04-21T20:51:43.030Z,5.07
2023-04-21T20:54:13.614Z,7.00
2023-04-21T20:56:43.669Z,4.10
2023-04-21T20:59:12.468Z,7.25
2023-04-21T21:01:42.669Z,4.80
2023-04-21T21:04:12.098Z,4.85
2023-04-21T21:06:41.012Z,4.95
2023-04-21T21:09:10.302Z,3.95
2023-04-21T21:11:40.519Z,4.82
2023-04-21T21:14:08.945Z,5.25
2023-04-21T21:16:37.634Z,3.90
2023-04-21T21:19:06.286Z,9.40
2023-04-21T21:21:35.030Z,4.88
2023-04-21T21:24:04.330Z,6.03
2023-04-21T21:26:33.069Z,5.40
2023-04-21T21:29:03.229Z,6.45
2023-04-21T21:31:32.145Z,8.13
2023-04-21T21:34:01.974Z,4.70
2023-04-21T21:36:31.935Z,4.95
2023-04-21T21:39:00.642Z,9.10
2023-04-21T21:41:29.031Z,5.22
2023-04-21T21:43:57.455Z,7.00
2023-04-21T21:46:27.797Z,6.78
2023-04-21T21:48:56.744Z,5.40
2023-04-21T21:51:25.408Z,7.88
2023-04-21T21:53:54.373Z,10.15
2023-04-21T21:56:24.249Z,7.25
2023-04-21T21:58:53.373Z,7.28
2023-04-21T22:01:22.879Z,8.50
2023-04-21T22:03:53.921Z,8.95
2023-04-21T22:06:24.632Z,8.07
2023-04-21T22:08:52.945Z,5.60
2023-04-21T22:11:22.025Z,5.55
2023-04-21T22:13:50.408Z,7.15
2023-04-21T22:16:18.878Z,6.30
2023-04-21T22:18:48.668Z,4.28
2023-04-21T22:21:19.034Z,6.72
2023-04-21T22:23:47.534Z,12.88
2023-04-21T22:26:16.243Z,5.80
2023-04-21T22:28:47.398Z,6.25
2023-04-21T22:31:16.439Z,7.80
2023-04-21T22:33:45.207Z,5.63
2023-04-21T22:36:13.844Z,12.60
2023-04-21T22:38:46.099Z,9.63
2023-04-21T22:41:15.711Z,7.88
2023-04-21T22:43:44.793Z,10.50
2023-04-21T22:46:14.003Z,10.45
2023-04-21T22:48:47.596Z,13.57
2023-04-21T22:51:16.079Z,10.77
2023-04-21T22:53:47.013Z,9.70
2023-04-21T22:56:15.973Z,7.60
2023-04-21T22:58:44.800Z,11.43
2023-04-21T23:01:14.674Z,10.15
2023-04-21T23:03:43.185Z,8.10
2023-04-21T23:06:12.735Z,6.85
2023-04-21T23:08:41.415Z,9.35
2023-04-21T23:11:11.534Z,9.73
2023-04-21T23:13:41.107Z,8.02
2023-04-21T23:16:09.999Z,7.22
2023-04-21T23:18:39.484Z,10.07
2023-04-21T23:21:08.737Z,14.93
2023-04-21T23:23:37.512Z,8.35
2023-04-21T23:26:06.212Z,11.02
2023-04-21T23:28:36.394Z,6.57
2023-04-21T23:31:05.432Z,11.25
2023-04-21T23:33:34.317Z,8.98
2023-04-21T23:36:03.791Z,11.20
2023-04-21T23:38:33.295Z,9.50
2023-04-21T23:41:02.540Z,9.13
2023-04-21T23:43:31.782Z,11.00
2023-04-21T23:46:03.809Z,7.85
2023-04-21T23:48:32.567Z,9.65
2023-04-21T23:51:01.316Z,9.90
2023-04-21T23:53:31.281Z,9.32
2023-04-21T23:56:01.308Z,7.35
2023-04-21T23:58:30.301Z,9.35
